Time;durP1;ratioP1;P1;durP2;ratioP2;P2;SDS_P1;SDS_P2;PMS_P1;PMS_P2;Temp;Humidity;BMP_temperature;BMP_pressure;BME280_temperature;BME280_humidity;BME280_pressure;Samples;Min_cycle;Max_cycle;Signal;HPM_P1;HPM_P2
2021/01/24 00:00:56;;;;;;;8.85;4.00;;;32.40;79.30;;;;;;5053434;28;20638;-70
2021/01/24 00:03:24;;;;;;;13.60;3.95;;;32.50;79.60;;;;;;5053527;28;20180;-70
2021/01/24 00:05:52;;;;;;;12.23;3.67;;;32.60;78.30;;;;;;5053021;28;20202;-68
2021/01/24 00:08:19;;;;;;;10.55;3.42;;;32.80;77.70;;;;;;5053169;28;20184;-69
2021/01/24 00:10:47;;;;;;;12.55;3.65;;;32.60;77.40;;;;;;5053488;28;20700;-67
2021/01/24 00:13:14;;;;;;;15.05;4.22;;;32.80;77.30;;;;;;5053096;28;20211;-71
2021/01/24 00:15:42;;;;;;;13.00;5.18;;;33.10;77.00;;;;;;5053380;28;20176;-68
2021/01/24 00:18:09;;;;;;;10.32;3.10;;;33.00;75.60;;;;;;5042210;28;20200;-69
2021/01/24 00:20:37;;;;;;;8.43;3.45;;;33.30;76.30;;;;;;5052687;28;20194;-68
2021/01/24 00:23:04;;;;;;;10.93;3.85;;;33.20;75.70;;;;;;5045569;28;20185;-67
2021/01/24 00:25:31;;;;;;;8.10;3.53;;;33.30;75.30;;;;;;5033650;28;20295;-69
2021/01/24 00:27:59;;;;;;;11.27;3.95;;;33.60;74.80;;;;;;5033331;28;20181;-70
2021/01/24 00:30:26;;;;;;;14.48;3.85;;;33.60;74.00;;;;;;5032458;28;20180;-71
2021/01/24 00:32:53;;;;;;;10.40;4.70;;;33.40;73.70;;;;;;5049192;28;20223;-69
2021/01/24 00:35:21;;;;;;;13.10;5.72;;;33.40;74.10;;;;;;5045791;28;20177;-68
2021/01/24 00:37:48;;;;;;;8.13;3.50;;;33.20;73.70;;;;;;5034359;28;20168;-69
2021/01/24 00:40:15;;;;;;;8.50;3.08;;;33.20;75.00;;;;;;5051745;28;20218;-70
2021/01/24 00:42:43;;;;;;;9.52;3.65;;;33.40;73.80;;;;;;5051011;28;20195;-69
2021/01/24 00:45:11;;;;;;;13.52;3.55;;;33.40;73.40;;;;;;5053177;28;20179;-70
2021/01/24 00:47:38;;;;;;;11.00;3.50;;;33.40;73.50;;;;;;5053326;28;20191;-70
2021/01/24 00:50:06;;;;;;;13.65;3.80;;;33.40;73.50;;;;;;5052725;28;20180;-69
2021/01/24 00:52:34;;;;;;;16.00;5.90;;;33.30;73.70;;;;;;5052744;28;20618;-70
2021/01/24 00:55:01;;;;;;;16.02;3.65;;;33.30;73.60;;;;;;5037250;28;20183;-70
2021/01/24 00:57:28;;;;;;;8.95;3.03;;;33.20;74.10;;;;;;5043756;28;20548;-69
2021/01/24 00:59:56;;;;;;;10.02;3.47;;;32.90;74.30;;;;;;5052713;28;20206;-70
2021/01/24 01:02:23;;;;;;;10.70;3.05;;;32.90;74.80;;;;;;5052576;28;20176;-69
2021/01/24 01:04:50;;;;;;;12.55;3.30;;;32.70;74.40;;;;;;5052567;28;20168;-69
2021/01/24 01:07:18;;;;;;;10.45;2.90;;;32.80;74.30;;;;;;5052647;28;20180;-68
2021/01/24 01:09:45;;;;;;;11.63;3.30;;;32.90;74.10;;;;;;5051841;28;20180;-71
2021/01/24 01:12:12;;;;;;;10.57;3.58;;;32.50;74.40;;;;;;5045363;28;20257;-70
2021/01/24 01:14:40;;;;;;;15.63;3.00;;;32.30;74.90;;;;;;5052014;28;20516;-71
2021/01/24 01:17:07;;;;;;;10.23;2.58;;;32.30;74.70;;;;;;5051570;28;20191;-72
2021/01/24 01:19:34;;;;;;;10.55;2.80;;;32.20;74.10;;;;;;5052783;28;20262;-71
2021/01/24 01:22:02;;;;;;;9.68;2.70;;;32.10;75.00;;;;;;5052676;28;20168;-72
2021/01/24 01:24:29;;;;;;;10.30;2.72;;;32.20;75.10;;;;;;5052526;28;20604;-71
2021/01/24 01:26:56;;;;;;;9.55;2.97;;;32.30;74.10;;;;;;5051119;28;20219;-70
2021/01/24 01:29:24;;;;;;;10.77;3.47;;;32.40;74.10;;;;;;5052207;28;20226;-70
2021/01/24 01:31:51;;;;;;;10.02;3.30;;;32.60;72.80;;;;;;5052341;28;20203;-71
2021/01/24 01:34:18;;;;;;;7.68;2.97;;;32.80;72.40;;;;;;5052694;28;20188;-70
2021/01/24 01:36:47;;;;;;;8.10;2.65;;;32.70;71.20;;;;;;5052430;28;20179;-71
2021/01/24 01:39:15;;;;;;;10.25;3.20;;;32.60;71.20;;;;;;5052500;28;20252;-73
2021/01/24 01:41:42;;;;;;;8.88;2.50;;;32.60;71.50;;;;;;5052461;28;20669;-72
2021/01/24 01:44:10;;;;;;;13.65;3.15;;;32.60;71.30;;;;;;5051134;28;20171;-69
2021/01/24 01:46:38;;;;;;;9.57;2.72;;;32.90;71.30;;;;;;5052489;28;20262;-69
2021/01/24 01:49:05;;;;;;;9.50;2.53;;;32.90;70.90;;;;;;5053937;28;20217;-69
2021/01/24 01:51:33;;;;;;;10.88;3.00;;;32.90;71.10;;;;;;5036612;28;20191;-68
2021/01/24 01:54:00;;;;;;;10.65;2.78;;;33.30;70.60;;;;;;5041424;28;20630;-69
2021/01/24 01:56:28;;;;;;;13.80;2.75;;;33.30;70.40;;;;;;5031091;28;20184;-69
2021/01/24 01:58:55;;;;;;;9.75;2.80;;;33.30;70.60;;;;;;5041862;28;20572;-68
2021/01/24 02:01:56;;;;;;;15.50;6.38;;;33.50;70.80;;;;;;5050857;28;20176;-69
2021/01/24 02:04:37;;;;;;;12.15;3.25;;;33.90;70.00;;;;;;5050804;28;20511;-69
2021/01/24 02:07:34;;;;;;;7.28;2.67;;;34.10;69.80;;;;;;5037575;28;20274;-69
2021/01/24 02:10:21;;;;;;;9.70;2.78;;;34.30;67.60;;;;;;5041314;28;20172;-69
2021/01/24 02:12:57;;;;;;;10.38;2.50;;;34.30;67.30;;;;;;5036108;28;20529;-70
2021/01/24 02:15:27;;;;;;;9.20;2.35;;;34.20;67.60;;;;;;5035843;28;20241;-70
2021/01/24 02:18:01;;;;;;;8.32;2.55;;;34.40;66.80;;;;;;5040736;28;20191;-70
2021/01/24 02:20:29;;;;;;;11.27;2.95;;;34.60;66.60;;;;;;5044177;28;20184;-70
2021/01/24 02:22:57;;;;;;;9.85;4.25;;;34.90;66.00;;;;;;5046550;28;20287;-68
2021/01/24 02:25:45;;;;;;;13.27;4.00;;;34.90;65.60;;;;;;5052086;28;20199;-69
2021/01/24 02:28:18;;;;;;;10.82;2.78;;;34.90;65.80;;;;;;5052135;28;20232;-67
2021/01/24 02:30:47;;;;;;;8.45;2.38;;;35.00;65.00;;;;;;5037837;28;20200;-67
2021/01/24 02:33:21;;;;;;;11.82;2.30;;;35.10;64.00;;;;;;5052071;28;20616;-68
2021/01/24 02:35:58;;;;;;;5.65;2.03;;;35.20;63.30;;;;;;5052280;28;20244;-69
2021/01/24 02:38:26;;;;;;;16.10;3.15;;;35.30;64.20;;;;;;5056208;28;20176;-71
2021/01/24 02:40:56;;;;;;;6.50;2.63;;;35.50;62.70;;;;;;5051630;28;20183;-69
2021/01/24 02:43:24;;;;;;;11.38;2.70;;;35.40;62.50;;;;;;5054333;28;20184;-68
2021/01/24 02:45:52;;;;;;;9.45;2.63;;;35.30;62.40;;;;;;5047387;28;20338;-69
2021/01/24 02:48:20;;;;;;;12.63;2.75;;;35.30;62.70;;;;;;5053861;28;20176;-70
2021/01/24 02:50:48;;;;;;;11.10;2.83;;;35.10;62.00;;;;;;5048542;28;20183;-70
2021/01/24 02:53:17;;;;;;;9.55;2.33;;;34.90;62.80;;;;;;5057328;28;20211;-71
2021/01/24 02:55:45;;;;;;;8.65;2.50;;;35.10;63.10;;;;;;5052041;28;20584;-70
2021/01/24 02:58:14;;;;;;;12.23;2.75;;;35.20;62.90;;;;;;5053045;28;20179;-68
2021/01/24 03:00:42;;;;;;;15.52;3.05;;;35.30;61.80;;;;;;5054981;28;20253;-67
2021/01/24 03:03:10;;;;;;;11.32;2.45;;;35.10;62.30;;;;;;5054023;28;20183;-70
2021/01/24 03:05:37;;;;;;;8.73;2.88;;;35.20;62.40;;;;;;5052327;28;20212;-71
2021/01/24 03:08:05;;;;;;;9.15;2.42;;;35.40;62.00;;;;;;5045228;28;20176;-70
2021/01/24 03:10:33;;;;;;;10.95;2.85;;;35.30;61.20;;;;;;5054766;28;20172;-71
2021/01/24 03:13:12;;;;;;;8.85;2.35;;;35.70;60.50;;;;;;5054585;28;20261;-71
2021/01/24 03:15:40;;;;;;;7.65;2.42;;;36.10;58.80;;;;;;5054671;28;20233;-70
2021/01/24 03:18:12;;;;;;;7.30;2.22;;;36.00;58.40;;;;;;5054967;28;20180;-72
2021/01/24 03:20:43;;;;;;;8.57;2.35;;;35.60;58.70;;;;;;5053625;28;20180;-69
2021/01/24 03:23:12;;;;;;;8.48;2.20;;;36.00;59.30;;;;;;5052306;28;20182;-70
2021/01/24 03:25:41;;;;;;;7.78;2.53;;;35.90;58.70;;;;;;5054462;28;20223;-71
2021/01/24 03:28:09;;;;;;;8.65;2.03;;;36.00;58.50;;;;;;5054724;28;20180;-69
2021/01/24 03:30:37;;;;;;;8.23;2.08;;;35.90;58.80;;;;;;5054198;28;20562;-70
2021/01/24 03:33:06;;;;;;;11.38;2.90;;;35.60;59.40;;;;;;5046605;28;20208;-69
2021/01/24 03:35:34;;;;;;;13.15;2.05;;;35.70;59.50;;;;;;5044159;28;20578;-70
2021/01/24 03:38:01;;;;;;;5.80;2.00;;;36.00;58.80;;;;;;5047185;28;20191;-69
2021/01/24 03:40:29;;;;;;;8.95;2.22;;;36.00;58.30;;;;;;5047593;28;20183;-69
2021/01/24 03:42:56;;;;;;;8.30;2.35;;;36.10;58.20;;;;;;5054393;28;20259;-70
2021/01/24 03:45:25;;;;;;;8.52;2.03;;;36.40;58.00;;;;;;5054400;28;20172;-68
2021/01/24 03:47:56;;;;;;;11.73;2.28;;;35.90;57.30;;;;;;5046990;28;20711;-70
2021/01/24 03:50:23;;;;;;;6.72;2.10;;;35.70;58.20;;;;;;5054169;28;20176;-69
2021/01/24 03:52:51;;;;;;;11.95;2.47;;;35.60;58.20;;;;;;5056360;28;20228;-71
2021/01/24 03:55:18;;;;;;;9.88;2.50;;;35.60;57.80;;;;;;5045660;28;20249;-68
2021/01/24 03:57:46;;;;;;;11.70;2.35;;;35.60;58.00;;;;;;5060295;28;20188;-70
2021/01/24 04:00:14;;;;;;;8.77;2.25;;;35.70;58.00;;;;;;5053342;28;20176;-68
2021/01/24 04:02:41;;;;;;;8.65;2.25;;;35.80;57.90;;;;;;5053004;28;20184;-68
2021/01/24 04:05:09;;;;;;;12.13;2.28;;;36.00;58.10;;;;;;5052562;28;20176;-69
2021/01/24 04:07:37;;;;;;;5.32;2.10;;;35.90;57.10;;;;;;5052433;28;20241;-69
2021/01/24 04:10:10;;;;;;;10.73;2.65;;;36.00;57.20;;;;;;5052371;28;20175;-71
2021/01/24 04:12:37;;;;;;;10.27;1.98;;;36.30;56.60;;;;;;5052854;28;20215;-71
2021/01/24 04:15:05;;;;;;;10.85;2.42;;;36.10;56.60;;;;;;5052992;28;20254;-70
2021/01/24 04:17:33;;;;;;;9.93;2.10;;;36.00;56.50;;;;;;5052400;28;20286;-68
2021/01/24 04:20:00;;;;;;;7.50;2.08;;;35.70;55.90;;;;;;5052938;28;20534;-68
2021/01/24 04:22:27;;;;;;;11.27;2.45;;;35.70;56.60;;;;;;5052215;28;20237;-67
2021/01/24 04:24:55;;;;;;;10.32;2.00;;;35.80;55.50;;;;;;5052935;28;20271;-70
2021/01/24 04:27:22;;;;;;;7.03;2.53;;;35.80;55.20;;;;;;5052845;28;20374;-70
2021/01/24 04:29:49;;;;;;;8.52;2.35;;;35.60;54.90;;;;;;5052819;28;20183;-68
2021/01/24 04:32:17;;;;;;;7.88;2.03;;;35.80;54.50;;;;;;5052749;28;20417;-69
2021/01/24 04:34:44;;;;;;;6.07;2.00;;;35.80;53.60;;;;;;5051828;28;20188;-70
2021/01/24 04:37:12;;;;;;;9.45;2.22;;;35.80;53.10;;;;;;5039280;28;20247;-71
2021/01/24 04:39:39;;;;;;;7.10;2.05;;;35.90;52.70;;;;;;5048406;28;20206;-67
2021/01/24 04:42:07;;;;;;;9.25;2.45;;;36.10;51.70;;;;;;5053039;28;20191;-69
2021/01/24 04:44:36;;;;;;;4.18;1.63;;;36.10;51.70;;;;;;5043341;28;20186;-69
2021/01/24 04:47:03;;;;;;;7.80;1.98;;;36.40;50.90;;;;;;5053148;28;20176;-68
2021/01/24 04:49:31;;;;;;;10.32;2.25;;;36.40;50.40;;;;;;5053174;28;20535;-69
2021/01/24 04:52:00;;;;;;;7.13;1.80;;;36.20;50.70;;;;;;5052205;28;20739;-70
2021/01/24 04:54:28;;;;;;;7.60;2.13;;;35.80;50.00;;;;;;5043518;28;20275;-69
2021/01/24 04:56:55;;;;;;;8.82;1.95;;;35.70;50.80;;;;;;5049667;28;20184;-72
2021/01/24 04:59:23;;;;;;;8.25;1.83;;;35.70;50.80;;;;;;5052123;28;20237;-73
2021/01/24 05:01:50;;;;;;;10.10;2.00;;;35.70;51.00;;;;;;5057895;28;20168;-69
2021/01/24 05:04:19;;;;;;;8.85;2.22;;;35.80;49.90;;;;;;5051958;28;20274;-69
2021/01/24 05:06:46;;;;;;;9.07;2.03;;;35.40;49.60;;;;;;5052576;28;20252;-70
2021/01/24 05:09:17;;;;;;;11.88;2.42;;;35.30;49.30;;;;;;5052417;28;20180;-71
2021/01/24 05:11:54;;;;;;;5.72;1.88;;;35.30;48.70;;;;;;5052643;28;20207;-69
2021/01/24 05:14:24;;;;;;;5.70;2.00;;;35.60;49.40;;;;;;5067714;28;20532;-69
2021/01/24 05:16:56;;;;;;;4.45;1.40;;;35.70;48.60;;;;;;5051672;28;20642;-71
2021/01/24 05:19:23;;;;;;;7.70;1.90;;;35.50;47.60;;;;;;5049798;28;20187;-70
2021/01/24 05:21:54;;;;;;;5.70;1.83;;;35.50;48.50;;;;;;5051321;28;20190;-68
2021/01/24 05:24:22;;;;;;;6.53;1.50;;;35.50;47.70;;;;;;5051236;28;20829;-68
2021/01/24 05:26:51;;;;;;;6.45;1.73;;;35.30;48.20;;;;;;5051641;28;20258;-69
2021/01/24 05:29:24;;;;;;;7.38;1.77;;;35.60;48.00;;;;;;5051922;28;20180;-68
2021/01/24 05:31:53;;;;;;;9.15;1.63;;;35.60;47.40;;;;;;5054454;28;20278;-68
2021/01/24 05:34:25;;;;;;;8.25;1.85;;;35.80;47.40;;;;;;5052402;28;20184;-67
2021/01/24 05:36:53;;;;;;;7.65;1.63;;;35.50;47.30;;;;;;5037958;28;20258;-69
2021/01/24 05:39:21;;;;;;;6.93;1.27;;;36.00;47.50;;;;;;5052092;28;20183;-71
2021/01/24 05:41:50;;;;;;;7.80;1.45;;;35.80;46.40;;;;;;5051236;28;20179;-72
2021/01/24 05:44:19;;;;;;;6.72;1.65;;;35.50;46.40;;;;;;5052879;28;20234;-69
2021/01/24 05:46:47;;;;;;;6.20;1.60;;;35.40;47.50;;;;;;5051803;28;20270;-69
2021/01/24 05:49:35;;;;;;;6.97;1.90;;;35.40;46.50;;;;;;5056316;28;20237;-68
2021/01/24 05:52:08;;;;;;;5.00;1.85;;;35.50;47.00;;;;;;5051450;28;20228;-68
2021/01/24 05:54:46;;;;;;;7.28;1.48;;;35.50;47.70;;;;;;5048285;28;20180;-67
2021/01/24 05:57:15;;;;;;;4.18;1.63;;;35.40;48.10;;;;;;5051740;28;20171;-68
2021/01/24 05:59:56;;;;;;;6.75;2.30;;;35.20;47.70;;;;;;5052125;28;20203;-69
2021/01/24 06:02:26;;;;;;;9.00;1.77;;;34.90;47.20;;;;;;5053094;28;20180;-70
2021/01/24 06:04:55;;;;;;;11.32;2.25;;;35.00;47.40;;;;;;5066820;28;20286;-69
2021/01/24 06:07:23;;;;;;;6.28;1.73;;;35.30;47.40;;;;;;5051754;28;20790;-69
2021/01/24 06:09:51;;;;;;;8.57;1.75;;;35.30;47.00;;;;;;5055326;28;20198;-70
2021/01/24 06:12:23;;;;;;;5.10;1.52;;;34.80;47.10;;;;;;5054435;28;20266;-72
2021/01/24 06:14:52;;;;;;;8.73;1.98;;;34.30;48.10;;;;;;5050426;28;20626;-70
2021/01/24 06:17:28;;;;;;;8.20;1.88;;;34.40;48.00;;;;;;5053555;28;20183;-70
2021/01/24 06:20:01;;;;;;;6.45;2.05;;;34.60;47.60;;;;;;5056038;28;20171;-71
2021/01/24 06:22:48;;;;;;;9.82;2.72;;;35.00;47.00;;;;;;5053850;28;20168;-69
2021/01/24 06:25:24;;;;;;;11.38;2.55;;;35.00;46.60;;;;;;5046022;28;20550;-71
2021/01/24 06:28:00;;;;;;;12.48;1.75;;;35.20;46.50;;;;;;5050315;28;20196;-70
2021/01/24 06:30:30;;;;;;;9.30;1.92;;;34.80;46.90;;;;;;5055246;28;20653;-69
2021/01/24 06:33:14;;;;;;;3.85;1.58;;;34.80;47.20;;;;;;5054436;28;20228;-69
2021/01/24 06:35:47;;;;;;;7.68;2.28;;;34.80;47.10;;;;;;5055884;28;20497;-67
2021/01/24 06:38:38;;;;;;;7.00;1.80;;;34.50;46.90;;;;;;5056261;28;20183;-69
2021/01/24 06:41:08;;;;;;;7.00;2.28;;;34.40;47.10;;;;;;5058367;28;20226;-69
2021/01/24 06:43:41;;;;;;;6.85;1.90;;;34.70;46.30;;;;;;5055020;28;20567;-71
2021/01/24 06:46:22;;;;;;;5.10;2.00;;;34.70;45.40;;;;;;5055648;28;20229;-70
2021/01/24 06:48:51;;;;;;;12.00;3.20;;;34.30;45.70;;;;;;5055895;28;20171;-69
2021/01/24 06:51:35;;;;;;;10.38;3.88;;;34.30;45.80;;;;;;5061900;28;20186;-68
2021/01/24 06:54:14;;;;;;;10.25;2.40;;;33.90;45.70;;;;;;5051541;28;20542;-69
2021/01/24 06:56:48;;;;;;;10.30;2.08;;;33.80;45.60;;;;;;5035733;28;20230;-69
2021/01/24 06:59:29;;;;;;;12.45;2.33;;;33.50;45.30;;;;;;5051753;28;20548;-69
2021/01/24 07:02:33;;;;;;;10.98;2.03;;;33.10;45.20;;;;;;5054386;28;20192;-71
2021/01/24 07:05:16;;;;;;;8.68;2.03;;;33.10;44.70;;;;;;5053815;28;20187;-70
2021/01/24 07:07:49;;;;;;;11.35;2.28;;;32.70;44.90;;;;;;5055269;28;20512;-68
2021/01/24 07:10:37;;;;;;;8.88;2.05;;;32.20;44.50;;;;;;5055426;28;20176;-68
2021/01/24 07:13:43;;;;;;;6.03;1.77;;;31.80;45.00;;;;;;5054835;28;20306;-70
2021/01/24 07:16:10;;;;;;;4.72;1.95;;;31.30;45.60;;;;;;5002062;28;20264;-69
2021/01/24 07:18:40;;;;;;;7.68;3.00;;;31.00;45.60;;;;;;5012775;28;20173;-71
2021/01/24 07:21:08;;;;;;;9.80;3.33;;;30.80;45.60;;;;;;5023883;28;20553;-68
2021/01/24 07:23:39;;;;;;;8.13;2.40;;;30.70;45.60;;;;;;5034900;28;20188;-70
2021/01/24 07:26:10;;;;;;;12.27;2.63;;;30.60;45.90;;;;;;5033101;28;20497;-68
2021/01/24 07:28:37;;;;;;;11.70;1.90;;;30.40;45.30;;;;;;5032639;28;20193;-68
2021/01/24 07:31:06;;;;;;;11.07;3.80;;;30.40;45.50;;;;;;5036997;28;20181;-66
2021/01/24 07:33:34;;;;;;;8.45;3.30;;;30.30;45.90;;;;;;5054872;28;20544;-68
2021/01/24 07:36:03;;;;;;;9.97;3.63;;;30.20;45.20;;;;;;5054541;28;20172;-67
2021/01/24 07:38:31;;;;;;;15.23;6.07;;;30.20;45.10;;;;;;5054935;28;20203;-68
2021/01/24 07:41:00;;;;;;;12.40;4.33;;;30.10;44.70;;;;;;5050573;28;20229;-67
2021/01/24 07:43:28;;;;;;;7.47;3.07;;;30.10;44.70;;;;;;5051568;28;20187;-67
2021/01/24 07:45:56;;;;;;;10.20;3.17;;;30.10;44.50;;;;;;5053099;28;20535;-67
2021/01/24 07:48:24;;;;;;;6.70;2.50;;;30.00;44.60;;;;;;5053395;28;20529;-68
2021/01/24 07:50:51;;;;;;;6.87;2.10;;;30.00;44.80;;;;;;5054313;28;20189;-68
2021/01/24 07:53:20;;;;;;;10.40;3.10;;;29.90;45.00;;;;;;5053632;28;20547;-70
2021/01/24 07:55:48;;;;;;;10.83;2.57;;;29.80;45.00;;;;;;5053692;28;20184;-69
2021/01/24 07:58:16;;;;;;;7.37;2.10;;;29.70;45.30;;;;;;5054185;28;20187;-68
2021/01/24 08:00:43;;;;;;;8.10;2.63;;;29.70;45.80;;;;;;5053157;28;20253;-69
2021/01/24 08:03:11;;;;;;;10.03;2.47;;;29.70;45.60;;;;;;5054679;28;20187;-69
2021/01/24 08:05:40;;;;;;;4.63;1.70;;;29.60;45.60;;;;;;5054447;28;20180;-68
2021/01/24 08:08:09;;;;;;;6.57;2.33;;;29.50;46.00;;;;;;5054853;28;20633;-68
2021/01/24 08:10:36;;;;;;;9.60;1.87;;;29.50;46.00;;;;;;5053284;28;20168;-70
2021/01/24 08:13:04;;;;;;;8.97;2.20;;;29.40;45.80;;;;;;5054057;28;20208;-70
2021/01/24 08:15:32;;;;;;;10.70;4.07;;;29.40;45.80;;;;;;5052001;28;20573;-68
2021/01/24 08:18:01;;;;;;;13.20;4.10;;;29.40;46.10;;;;;;5054466;28;20645;-68
2021/01/24 08:20:28;;;;;;;9.97;3.90;;;29.30;45.50;;;;;;5042703;28;20680;-69
2021/01/24 08:22:56;;;;;;;10.37;3.90;;;29.20;45.80;;;;;;5053650;28;20172;-68
2021/01/24 08:25:25;;;;;;;7.70;3.97;;;29.10;45.60;;;;;;5052384;28;20661;-68
2021/01/24 08:27:53;;;;;;;8.80;2.67;;;29.10;46.00;;;;;;5054005;28;20191;-68
2021/01/24 08:30:21;;;;;;;7.67;3.23;;;29.10;46.20;;;;;;5053848;28;20679;-69
2021/01/24 08:32:49;;;;;;;9.50;2.67;;;29.00;47.20;;;;;;5053736;28;20655;-69
2021/01/24 08:35:17;;;;;;;9.93;2.83;;;29.00;48.10;;;;;;5054168;28;20180;-69
2021/01/24 08:37:48;;;;;;;9.90;3.40;;;29.00;48.10;;;;;;5053542;28;20207;-67
2021/01/24 08:40:16;;;;;;;11.27;3.70;;;29.00;48.40;;;;;;5052844;28;20274;-69
2021/01/24 08:42:50;;;;;;;7.57;2.70;;;28.90;46.80;;;;;;5051832;28;20190;-68
2021/01/24 08:45:25;;;;;;;11.90;3.33;;;29.00;47.00;;;;;;5053529;28;20543;-67
2021/01/24 08:47:58;;;;;;;8.63;3.07;;;29.10;47.00;;;;;;5052715;28;20210;-68
2021/01/24 08:50:34;;;;;;;9.57;3.37;;;29.10;46.30;;;;;;5053467;28;20262;-68
2021/01/24 08:53:06;;;;;;;10.90;3.10;;;29.10;45.50;;;;;;5051829;28;20246;-68
2021/01/24 08:55:50;;;;;;;9.73;3.80;;;29.10;45.60;;;;;;5040184;28;20531;-67
2021/01/24 08:58:24;;;;;;;13.93;5.43;;;29.20;46.50;;;;;;5045812;28;20184;-68
2021/01/24 09:01:13;;;;;;;14.13;5.10;;;29.10;47.20;;;;;;5052522;28;20179;-67
2021/01/24 09:03:41;;;;;;;12.23;5.40;;;28.90;47.80;;;;;;5058269;28;20181;-67
2021/01/24 09:06:16;;;;;;;14.03;5.23;;;28.80;48.60;;;;;;5050955;28;20187;-67
2021/01/24 09:08:52;;;;;;;15.23;5.60;;;28.70;49.90;;;;;;5050333;28;20182;-68
2021/01/24 09:11:20;;;;;;;11.27;4.93;;;28.60;50.40;;;;;;5045057;28;20638;-69
2021/01/24 09:13:49;;;;;;;18.00;6.03;;;28.60;51.30;;;;;;5050690;28;20212;-68
2021/01/24 09:16:20;;;;;;;16.47;5.47;;;28.50;52.40;;;;;;5047882;28;20184;-69
2021/01/24 09:18:47;;;;;;;17.53;5.13;;;28.60;52.60;;;;;;5051873;28;20184;-68
2021/01/24 09:21:15;;;;;;;16.87;6.03;;;28.50;53.50;;;;;;5051421;28;20176;-68
2021/01/24 09:23:42;;;;;;;16.70;5.33;;;28.50;54.60;;;;;;5052641;28;20263;-68
2021/01/24 09:26:10;;;;;;;15.07;6.00;;;28.40;55.70;;;;;;5051771;28;20661;-70
2021/01/24 09:28:37;;;;;;;13.17;5.33;;;28.30;56.50;;;;;;5032461;28;20181;-70
2021/01/24 09:31:04;;;;;;;12.77;4.97;;;28.30;56.70;;;;;;5063800;28;20644;-70
2021/01/24 09:33:31;;;;;;;16.07;5.30;;;28.20;57.70;;;;;;5050538;28;20215;-69
2021/01/24 09:35:59;;;;;;;18.77;5.73;;;28.20;58.80;;;;;;5050736;28;20180;-67
2021/01/24 09:38:26;;;;;;;19.33;5.47;;;28.00;60.70;;;;;;5051306;28;20191;-71
2021/01/24 09:40:54;;;;;;;20.03;5.70;;;27.90;62.40;;;;;;5050958;28;20267;-69
2021/01/24 09:43:21;;;;;;;19.77;5.17;;;27.80;64.20;;;;;;5050429;28;20562;-68
2021/01/24 09:45:49;;;;;;;19.77;5.47;;;27.60;65.70;;;;;;5051827;28;20241;-69
2021/01/24 09:48:17;;;;;;;24.23;9.80;;;27.50;67.30;;;;;;5035698;28;20188;-71
2021/01/24 09:50:44;;;;;;;21.63;6.00;;;27.40;68.60;;;;;;5044238;28;20183;-69
2021/01/24 09:53:11;;;;;;;22.53;7.87;;;27.30;69.80;;;;;;5056427;28;20215;-69
2021/01/24 09:55:39;;;;;;;20.47;6.93;;;27.30;70.70;;;;;;5047925;28;20180;-71
2021/01/24 09:58:07;;;;;;;16.13;5.40;;;27.20;72.80;;;;;;5056611;28;20190;-71
2021/01/24 10:00:34;;;;;;;15.20;6.07;;;27.20;73.60;;;;;;5055943;28;20175;-70
2021/01/24 10:03:01;;;;;;;19.93;6.27;;;27.10;74.30;;;;;;5054340;28;20182;-70
2021/01/24 10:05:29;;;;;;;18.63;5.73;;;27.10;74.30;;;;;;5055750;28;20172;-70
2021/01/24 10:07:56;;;;;;;18.60;5.17;;;27.00;74.90;;;;;;5056468;28;20176;-70
2021/01/24 10:10:23;;;;;;;13.13;5.63;;;26.90;76.40;;;;;;5055857;28;20531;-69
2021/01/24 10:12:51;;;;;;;18.53;5.80;;;27.00;76.90;;;;;;5054190;28;20230;-68
2021/01/24 10:15:18;;;;;;;19.97;5.53;;;26.80;77.00;;;;;;5055907;28;20176;-71
2021/01/24 10:17:45;;;;;;;9.93;4.33;;;26.80;77.10;;;;;;5054718;28;20188;-69
2021/01/24 10:20:13;;;;;;;20.87;4.93;;;26.80;76.60;;;;;;5055273;28;20598;-69
2021/01/24 10:22:40;;;;;;;17.30;4.53;;;26.80;75.90;;;;;;5055471;28;20195;-68
2021/01/24 10:25:08;;;;;;;14.67;4.63;;;26.80;75.50;;;;;;5055246;28;20176;-68
2021/01/24 10:27:36;;;;;;;22.27;5.63;;;26.90;73.90;;;;;;5055316;28;20203;-68
2021/01/24 10:30:05;;;;;;;23.30;8.27;;;27.00;74.20;;;;;;5055739;28;20184;-68
2021/01/24 10:32:32;;;;;;;19.60;7.57;;;27.00;73.80;;;;;;5054321;28;20235;-69
2021/01/24 10:35:00;;;;;;;15.90;4.10;;;27.00;73.80;;;;;;5055117;28;20176;-68
2021/01/24 10:37:27;;;;;;;10.93;4.37;;;27.10;73.70;;;;;;5055809;28;20199;-68
2021/01/24 10:39:54;;;;;;;18.67;7.57;;;27.10;74.30;;;;;;5055015;28;20180;-69
2021/01/24 10:42:22;;;;;;;19.50;4.80;;;26.90;74.70;;;;;;5053882;28;20176;-70
2021/01/24 10:44:49;;;;;;;13.60;4.17;;;26.90;75.60;;;;;;5053887;28;20210;-69
2021/01/24 10:47:17;;;;;;;15.13;3.87;;;26.80;76.80;;;;;;5054720;28;20194;-70
2021/01/24 10:49:44;;;;;;;13.10;4.07;;;26.80;77.20;;;;;;5055074;28;20222;-71
2021/01/24 10:52:11;;;;;;;15.77;4.07;;;26.80;77.60;;;;;;5055142;28;20621;-72
2021/01/24 10:54:38;;;;;;;13.53;4.27;;;26.80;78.80;;;;;;5041758;28;20188;-70
2021/01/24 10:57:06;;;;;;;19.80;4.33;;;26.80;78.90;;;;;;5055450;28;20180;-72
2021/01/24 10:59:33;;;;;;;20.30;8.80;;;26.70;79.50;;;;;;5055386;28;20195;-70
2021/01/24 11:02:02;;;;;;;17.33;4.97;;;26.70;80.60;;;;;;5054062;28;20188;-71
2021/01/24 11:04:33;;;;;;;22.00;4.93;;;26.60;80.40;;;;;;5054352;28;20684;-71
2021/01/24 11:07:01;;;;;;;14.80;3.20;;;26.60;81.40;;;;;;5053770;28;20184;-71
2021/01/24 11:09:28;;;;;;;12.27;3.40;;;26.50;81.80;;;;;;5054511;28;20639;-70
2021/01/24 11:11:56;;;;;;;12.87;3.17;;;26.50;82.10;;;;;;5052928;28;20199;-70
2021/01/24 11:14:23;;;;;;;17.33;3.67;;;26.60;82.40;;;;;;5054830;28;20329;-71
2021/01/24 11:16:50;;;;;;;16.77;3.27;;;26.70;82.30;;;;;;5046240;28;20185;-71
2021/01/24 11:19:18;;;;;;;16.43;3.23;;;26.60;82.50;;;;;;5049934;28;20200;-70
2021/01/24 11:21:45;;;;;;;15.47;3.50;;;26.60;82.90;;;;;;5041904;28;20669;-69
2021/01/24 11:24:13;;;;;;;23.80;4.80;;;26.60;83.40;;;;;;5049641;28;20176;-71
2021/01/24 11:26:40;;;;;;;13.03;3.60;;;26.50;84.50;;;;;;5053126;28;20733;-69
2021/01/24 11:29:08;;;;;;;14.37;3.37;;;26.40;85.10;;;;;;5054648;28;20176;-69
2021/01/24 11:31:35;;;;;;;15.07;4.07;;;26.40;85.70;;;;;;5054712;28;20230;-72
2021/01/24 11:34:02;;;;;;;14.33;4.20;;;26.40;86.10;;;;;;5054009;28;20247;-71
2021/01/24 11:36:30;;;;;;;17.47;3.73;;;26.40;86.50;;;;;;5049242;28;20264;-70
2021/01/24 11:38:57;;;;;;;15.33;3.50;;;26.40;86.90;;;;;;5054253;28;20190;-69
2021/01/24 11:41:25;;;;;;;16.30;3.67;;;26.30;87.40;;;;;;5068350;28;20184;-72
2021/01/24 11:43:52;;;;;;;18.33;4.00;;;26.30;88.10;;;;;;5054305;28;20182;-71
2021/01/24 11:46:20;;;;;;;14.10;3.27;;;26.20;88.40;;;;;;5054881;28;20540;-69
2021/01/24 11:48:47;;;;;;;15.10;3.87;;;26.20;89.00;;;;;;5053884;28;20199;-70
2021/01/24 11:51:15;;;;;;;15.90;3.67;;;26.20;89.10;;;;;;5054537;28;20241;-70
2021/01/24 11:53:42;;;;;;;17.03;3.63;;;26.10;89.50;;;;;;5051176;28;20687;-68
2021/01/24 11:56:10;;;;;;;16.40;3.03;;;26.10;90.00;;;;;;5043943;28;20239;-70
2021/01/24 11:58:38;;;;;;;16.57;3.57;;;26.00;90.50;;;;;;5048554;28;20198;-70
2021/01/24 12:01:06;;;;;;;15.50;4.00;;;26.00;90.90;;;;;;5052435;28;20219;-68
2021/01/24 12:03:33;;;;;;;19.17;3.50;;;25.80;91.10;;;;;;5052422;28;20191;-70
2021/01/24 12:06:01;;;;;;;16.50;3.47;;;25.80;91.40;;;;;;5054364;28;20172;-70
2021/01/24 12:08:28;;;;;;;24.50;4.20;;;25.80;91.60;;;;;;5054205;28;20520;-69
2021/01/24 12:10:56;;;;;;;21.20;3.67;;;25.80;91.60;;;;;;5052220;28;20536;-68
2021/01/24 12:13:23;;;;;;;16.57;3.03;;;25.80;91.80;;;;;;5053233;28;20211;-68
2021/01/24 12:15:51;;;;;;;19.13;3.77;;;25.70;92.00;;;;;;5053550;28;20183;-69
2021/01/24 12:18:19;;;;;;;15.43;3.73;;;25.70;92.10;;;;;;5051394;28;20179;-69
2021/01/24 12:20:46;;;;;;;24.47;4.73;;;25.70;92.30;;;;;;5052031;28;20184;-69
2021/01/24 12:23:14;;;;;;;17.80;3.53;;;25.70;92.40;;;;;;5053445;28;20250;-68
2021/01/24 12:25:41;;;;;;;20.87;3.70;;;25.60;92.50;;;;;;5048718;28;20587;-70
2021/01/24 12:28:09;;;;;;;22.37;3.70;;;25.60;92.70;;;;;;5052084;28;20270;-69
2021/01/24 12:30:36;;;;;;;17.20;3.77;;;25.50;92.70;;;;;;5052429;28;20184;-70
2021/01/24 12:33:04;;;;;;;18.47;3.80;;;25.50;92.90;;;;;;5052822;28;20691;-70
2021/01/24 12:35:31;;;;;;;14.23;3.57;;;25.50;93.00;;;;;;5053973;28;20206;-68
2021/01/24 12:37:59;;;;;;;19.70;4.27;;;25.50;93.20;;;;;;5047517;28;20183;-69
2021/01/24 12:40:26;;;;;;;25.40;4.00;;;25.50;93.40;;;;;;5053045;28;20180;-68
2021/01/24 12:42:53;;;;;;;19.33;3.90;;;25.40;93.30;;;;;;5053013;28;20179;-69
2021/01/24 12:45:21;;;;;;;22.00;3.90;;;25.50;93.20;;;;;;5053325;28;20686;-70
2021/01/24 12:47:52;;;;;;;16.17;3.53;;;25.40;93.30;;;;;;5053010;28;20179;-69
2021/01/24 12:50:19;;;;;;;20.53;4.50;;;25.40;93.40;;;;;;5053699;28;20214;-69
2021/01/24 12:52:47;;;;;;;17.27;3.10;;;25.40;93.40;;;;;;5051941;28;20207;-70